Time;durP1;ratioP1;P1;durP2;ratioP2;P2;SDS_P1;SDS_P2;PMS_P1;PMS_P2;Temp;Humidity;BMP_temperature;BMP_pressure;BME280_temperature;BME280_humidity;BME280_pressure;Samples;Min_cycle;Max_cycle;Signal;HPM_P1;HPM_P2
2023/08/29 00:01:06;;;;;;;2.67;1.60;;;16.30;99.90;;;16.12;73.09;100456.19;5095334;28;20590;-73
2023/08/29 00:03:39;;;;;;;3.07;1.77;;;16.40;99.90;;;16.17;73.31;100448.31;5095316;28;20710;-73
2023/08/29 00:06:11;;;;;;;4.73;2.03;;;16.40;99.90;;;16.17;73.63;100432.94;5095571;28;20239;-73
2023/08/29 00:08:43;;;;;;;2.13;1.80;;;16.40;99.90;;;16.14;73.66;100432.50;5095617;28;20259;-73
2023/08/29 00:11:15;;;;;;;4.13;2.17;;;16.40;99.90;;;16.09;74.23;100426.91;5095497;28;20271;-73
2023/08/29 00:13:47;;;;;;;3.20;1.80;;;16.40;99.90;;;16.01;72.94;100416.28;5095408;28;20256;-73
2023/08/29 00:16:19;;;;;;;3.10;1.70;;;16.30;99.90;;;16.01;73.00;100408.16;5095406;28;20189;-73
2023/08/29 00:18:52;;;;;;;3.13;1.87;;;16.30;99.90;;;16.03;73.76;100397.97;5095312;28;20275;-73
2023/08/29 00:21:23;;;;;;;5.43;1.80;;;16.20;99.90;;;15.97;74.10;100402.34;5094989;28;20595;-73
2023/08/29 00:23:55;;;;;;;4.30;2.23;;;16.20;99.90;;;15.96;73.95;100397.97;5094912;28;20777;-73
2023/08/29 00:26:27;;;;;;;3.07;2.10;;;16.30;99.90;;;15.87;73.26;100399.19;5095126;28;20652;-73
2023/08/29 00:28:59;;;;;;;3.17;2.00;;;16.10;99.90;;;15.89;73.84;100399.81;5095138;28;20213;-73
2023/08/29 00:31:31;;;;;;;3.73;1.90;;;16.10;99.90;;;15.86;74.27;100404.78;5095105;28;20229;-74
2023/08/29 00:34:05;;;;;;;2.90;1.70;;;16.10;99.90;;;15.87;73.85;100403.75;5094956;28;20220;-73
2023/08/29 00:36:36;;;;;;;2.67;2.20;;;17.60;99.90;;;15.87;73.90;100409.16;5094959;28;20280;-73
2023/08/29 00:39:08;;;;;;;3.83;1.87;;;16.10;99.90;;;15.82;73.88;100417.06;5094947;28;20207;-74
2023/08/29 00:41:41;;;;;;;4.33;2.10;;;16.10;99.90;;;15.78;74.56;100424.72;5094926;28;20283;-73
2023/08/29 00:44:13;;;;;;;2.27;1.87;;;16.10;99.90;;;15.76;74.54;100428.63;5094775;28;20220;-74
2023/08/29 00:46:46;;;;;;;2.53;1.90;;;16.00;99.90;;;15.77;74.76;100443.81;5094422;28;20312;-74
2023/08/29 00:49:23;;;;;;;2.43;1.90;;;16.00;99.90;;;15.77;74.03;100443.81;5094753;28;20189;-73
2023/08/29 00:51:59;;;;;;;3.10;1.90;;;16.10;99.90;;;15.65;74.80;100438.97;5093825;28;20207;-73
2023/08/29 00:54:34;;;;;;;4.70;2.10;;;16.10;99.90;;;15.70;74.69;100432.97;5094284;28;20326;-73
2023/08/29 00:57:07;;;;;;;2.63;1.90;;;16.00;99.90;;;15.71;74.68;100448.97;5094544;28;20180;-73
2023/08/29 00:59:39;;;;;;;4.57;2.00;;;16.00;99.90;;;15.64;75.04;100461.63;5094622;28;20235;-73
2023/08/29 01:02:11;;;;;;;3.23;1.90;;;15.90;99.90;;;15.63;75.52;100470.72;5094572;28;20205;-73
2023/08/29 01:04:44;;;;;;;3.90;2.10;;;15.90;99.90;;;15.60;75.45;100468.44;5094393;28;20315;-73
2023/08/29 01:07:16;;;;;;;3.63;2.00;;;15.80;99.90;;;15.57;75.61;100474.22;5094436;28;20205;-73
2023/08/29 01:09:49;;;;;;;3.37;1.87;;;15.90;99.90;;;15.52;75.56;100473.97;5094096;28;20625;-73
2023/08/29 01:12:21;;;;;;;3.43;2.20;;;15.80;99.90;;;15.49;75.04;100471.69;5094353;28;20189;-73
2023/08/29 01:15:04;;;;;;;2.70;2.17;;;15.80;99.90;;;15.50;75.98;100467.13;5094199;28;20224;-73
2023/08/29 01:17:45;;;;;;;3.17;1.93;;;15.70;99.90;;;15.50;75.76;100465.25;5094253;28;20250;-73
2023/08/29 01:20:21;;;;;;;4.03;2.00;;;15.80;99.90;;;15.52;75.86;100465.06;5093940;28;20665;-73
2023/08/29 01:23:08;;;;;;;3.37;2.20;;;15.80;99.90;;;15.46;75.95;100466.66;5094334;28;20188;-73
2023/08/29 01:25:57;;;;;;;3.20;2.00;;;15.70;99.90;;;15.40;76.31;100456.66;5094054;28;20212;-73
2023/08/29 01:28:30;;;;;;;3.80;2.43;;;15.70;99.90;;;15.40;76.76;100456.66;5093797;28;20659;-74
2023/08/29 01:31:04;;;;;;;8.87;2.50;;;15.70;99.90;;;15.41;76.88;100457.50;5094013;28;20195;-74
2023/08/29 01:33:38;;;;;;;2.90;2.37;;;15.70;99.90;;;15.40;76.54;100455.81;5094267;28;20233;-73
2023/08/29 01:36:10;;;;;;;2.50;2.30;;;15.70;99.90;;;15.37;76.65;100451.66;5093942;28;20196;-73
2023/08/29 01:38:41;;;;;;;3.27;2.33;;;15.60;99.90;;;15.43;76.18;100447.34;5093624;28;20733;-73
2023/08/29 01:41:13;;;;;;;2.37;2.17;;;15.80;99.90;;;15.42;76.47;100457.28;5093874;28;20281;-73
2023/08/29 01:43:47;;;;;;;3.17;2.20;;;15.70;99.90;;;15.41;76.23;100452.91;5094079;28;20235;-73
2023/08/29 01:46:18;;;;;;;3.30;2.20;;;15.80;99.90;;;15.40;76.18;100445.88;5093421;28;20582;-73
2023/08/29 01:48:51;;;;;;;3.53;2.00;;;15.70;99.90;;;15.34;77.14;100457.47;5093472;28;20593;-74
2023/08/29 01:51:23;;;;;;;7.47;2.30;;;15.60;99.90;;;15.33;77.05;100457.66;5093453;28;20605;-74
2023/08/29 01:53:55;;;;;;;3.10;2.33;;;15.60;99.90;;;15.31;76.33;100465.94;5093525;28;20243;-73
2023/08/29 01:56:33;;;;;;;3.83;2.30;;;15.70;99.90;;;15.31;76.66;100467.81;5093783;28;20263;-73
2023/08/29 01:59:09;;;;;;;3.23;2.40;;;15.60;99.90;;;15.31;76.19;100463.22;5093648;28;20267;-73
2023/08/29 02:01:44;;;;;;;3.20;2.17;;;15.60;99.90;;;15.26;76.64;100460.31;5093392;28;20288;-74
2023/08/29 02:04:16;;;;;;;3.60;2.30;;;15.60;99.90;;;15.27;76.88;100469.22;5093290;28;20315;-73
2023/08/29 02:06:51;;;;;;;4.47;2.57;;;15.50;99.90;;;15.21;77.91;100473.53;5093807;28;20209;-73
2023/08/29 02:09:23;;;;;;;2.97;2.20;;;15.40;99.90;;;15.23;77.68;100466.94;5093591;28;20220;-73
2023/08/29 02:11:55;;;;;;;3.37;2.33;;;15.50;99.90;;;15.26;77.68;100465.69;5093609;28;20196;-73
2023/08/29 02:14:28;;;;;;;3.87;2.53;;;15.60;99.90;;;15.24;77.25;100465.88;5093716;28;20228;-73
2023/08/29 02:17:00;;;;;;;4.90;2.20;;;15.50;99.90;;;15.21;77.20;100471.69;5093529;28;20277;-73
2023/08/29 02:19:32;;;;;;;3.47;2.53;;;15.50;99.90;;;15.18;76.61;100471.22;5093432;28;20203;-73
2023/08/29 02:22:04;;;;;;;5.13;2.67;;;15.50;99.90;;;15.09;77.80;100464.34;5093438;28;20284;-74
2023/08/29 02:24:36;;;;;;;3.87;2.37;;;15.30;99.90;;;15.00;78.07;100462.81;5093463;28;20311;-73
2023/08/29 02:27:09;;;;;;;4.00;2.60;;;15.20;99.90;;;14.86;79.11;100464.56;5093369;28;20299;-73
2023/08/29 02:29:42;;;;;;;2.93;2.63;;;15.20;99.90;;;14.89;78.88;100455.25;5093127;28;20659;-74
2023/08/29 02:32:14;;;;;;;4.40;2.60;;;15.20;99.90;;;14.92;77.68;100457.56;5093346;28;20557;-74
2023/08/29 02:34:46;;;;;;;6.43;2.47;;;15.20;99.90;;;14.91;78.22;100455.88;5093006;28;20710;-73
2023/08/29 02:37:18;;;;;;;3.13;2.60;;;15.30;99.90;;;14.91;77.88;100451.34;5092991;28;20665;-73
2023/08/29 02:39:50;;;;;;;2.73;2.33;;;15.30;99.90;;;14.96;77.62;100456.16;5092974;28;20200;-74
2023/08/29 02:42:26;;;;;;;5.47;2.67;;;15.40;99.90;;;14.95;77.85;100457.16;5093217;28;20200;-73
2023/08/29 02:44:59;;;;;;;3.00;2.63;;;15.30;99.90;;;14.84;78.56;100460.38;5093205;28;20224;-74
2023/08/29 02:47:32;;;;;;;2.67;2.40;;;15.10;99.90;;;14.85;77.85;100453.97;5093346;28;20208;-73
2023/08/29 02:50:04;;;;;;;3.60;2.60;;;15.20;99.90;;;14.86;78.24;100451.09;5093227;28;20190;-73
2023/08/29 02:52:36;;;;;;;3.83;2.43;;;15.30;99.90;;;14.82;77.93;100447.13;5093168;28;20602;-73
2023/08/29 02:55:10;;;;;;;4.50;2.63;;;15.20;99.90;;;14.73;78.09;100444.78;5092671;28;20305;-73
2023/08/29 02:57:42;;;;;;;4.53;2.60;;;15.00;99.90;;;14.69;78.78;100442.44;5093110;28;20654;-74
2023/08/29 03:00:19;;;;;;;3.93;2.70;;;15.00;99.90;;;14.64;79.03;100450.28;5093103;28;20193;-73
2023/08/29 03:02:51;;;;;;;3.00;2.70;;;14.90;99.90;;;14.68;78.62;100439.94;5092839;28;20561;-74
2023/08/29 03:05:23;;;;;;;3.47;2.57;;;15.00;99.90;;;14.66;78.02;100442.81;5093023;28;20673;-73
2023/08/29 03:07:55;;;;;;;3.47;2.80;;;15.00;99.90;;;14.65;78.71;100451.97;5093802;28;20240;-72
2023/08/29 03:10:30;;;;;;;2.53;2.33;;;14.90;99.90;;;14.63;78.75;100437.81;5094534;28;20713;-73
2023/08/29 03:13:02;;;;;;;4.10;2.43;;;14.90;99.90;;;14.61;78.80;100439.91;5094587;28;20619;-73
2023/08/29 03:15:38;;;;;;;3.77;2.83;;;14.90;99.90;;;14.62;78.78;100429.97;5096546;28;20197;-73
2023/08/29 03:18:10;;;;;;;5.10;2.77;;;15.70;99.90;;;14.62;78.54;100435.34;5096553;28;20189;-73
2023/08/29 03:20:44;;;;;;;3.10;2.30;;;14.90;99.90;;;14.63;78.30;100437.00;5096467;28;20280;-73
2023/08/29 03:23:16;;;;;;;6.60;3.20;;;15.00;99.90;;;14.63;78.51;100440.53;5096557;28;20233;-73
2023/08/29 03:25:48;;;;;;;4.57;2.83;;;15.00;99.90;;;14.57;78.79;100438.59;5096142;28;20185;-73
2023/08/29 03:28:20;;;;;;;3.57;2.50;;;14.90;99.90;;;14.60;79.11;100440.06;5096371;28;20303;-73
2023/08/29 03:30:53;;;;;;;4.00;2.50;;;15.00;99.90;;;14.56;78.50;100426.16;5096363;28;20200;-73
2023/08/29 03:33:25;;;;;;;3.13;2.57;;;14.90;99.90;;;14.55;79.04;100440.69;5096209;28;20385;-73
2023/08/29 03:36:03;;;;;;;3.40;3.00;;;14.90;99.90;;;14.34;79.54;100437.97;5096266;28;20217;-73
2023/08/29 03:38:37;;;;;;;3.13;2.93;;;14.70;99.90;;;14.38;79.59;100433.03;5096231;28;20206;-73
2023/08/29 03:41:09;;;;;;;3.40;2.77;;;14.70;99.90;;;14.35;79.29;100428.03;5096257;28;20189;-72
2023/08/29 03:43:41;;;;;;;4.00;2.70;;;14.70;99.90;;;14.25;80.34;100412.16;5095975;28;20242;-73
2023/08/29 03:46:17;;;;;;;3.40;2.80;;;14.60;99.90;;;14.30;80.66;100401.66;5095946;28;20300;-73
2023/08/29 03:48:49;;;;;;;3.73;2.73;;;14.60;99.90;;;14.26;80.17;100397.66;5096181;28;20219;-73
2023/08/29 03:51:21;;;;;;;3.50;3.07;;;14.60;99.90;;;14.31;80.25;100400.63;5096476;28;20193;-73
2023/08/29 03:53:53;;;;;;;3.73;3.03;;;14.70;99.90;;;14.35;80.33;100396.53;5095767;28;20244;-73
2023/08/29 03:56:25;;;;;;;4.00;2.87;;;14.70;99.90;;;14.33;80.02;100390.50;5095805;28;20244;-74
2023/08/29 03:58:57;;;;;;;3.60;2.60;;;14.70;99.90;;;14.35;80.07;100384.94;5095865;28;20185;-74
2023/08/29 04:01:30;;;;;;;6.77;3.00;;;14.70;99.90;;;14.32;79.91;100378.03;5096389;28;20276;-74
2023/08/29 04:04:03;;;;;;;4.40;2.90;;;14.70;99.90;;;14.35;80.49;100380.38;5095521;28;20590;-73
2023/08/29 04:06:35;;;;;;;3.07;2.73;;;14.70;99.90;;;14.34;80.39;100388.66;5095604;28;20193;-73
2023/08/29 04:09:08;;;;;;;4.00;2.80;;;14.70;99.90;;;14.34;80.22;100377.88;5095151;28;20653;-73
2023/08/29 04:11:40;;;;;;;3.10;2.80;;;14.70;99.90;;;14.31;80.55;100373.69;5095488;28;20274;-73
2023/08/29 04:14:12;;;;;;;4.77;3.80;;;14.60;99.90;;;14.19;81.46;100375.22;5095377;28;20228;-73
2023/08/29 04:16:45;;;;;;;4.00;3.10;;;14.50;99.90;;;14.21;80.74;100370.50;5095396;28;20272;-73
2023/08/29 04:19:17;;;;;;;6.13;3.37;;;14.50;99.90;;;14.22;81.14;100369.44;5095320;28;20192;-73
2023/08/29 04:21:49;;;;;;;4.93;3.80;;;14.60;99.90;;;14.15;81.04;100366.69;5094989;28;20224;-73
2023/08/29 04:24:21;;;;;;;6.23;3.50;;;14.50;99.90;;;14.15;80.75;100368.56;5094794;28;20645;-74
2023/08/29 04:26:53;;;;;;;3.53;3.20;;;14.50;99.90;;;14.10;81.31;100371.00;5095164;28;20189;-74
2023/08/29 04:29:25;;;;;;;6.87;3.30;;;14.50;99.90;;;14.13;81.12;100370.63;5095096;28;20193;-74
2023/08/29 04:31:58;;;;;;;3.53;3.13;;;14.50;99.90;;;14.09;81.75;100372.03;5094740;28;20639;-74
2023/08/29 04:34:29;;;;;;;4.50;3.67;;;14.50;99.90;;;14.09;81.33;100367.47;5094874;28;20311;-73
2023/08/29 04:37:01;;;;;;;5.23;3.57;;;14.40;99.90;;;14.09;81.72;100362.09;5093806;28;20189;-73
2023/08/29 04:39:34;;;;;;;5.80;3.60;;;14.40;99.90;;;14.06;81.91;100365.16;5094353;28;20631;-74
2023/08/29 04:42:10;;;;;;;4.97;3.60;;;14.50;99.90;;;14.10;81.62;100365.63;5094550;28;20559;-73
2023/08/29 04:44:41;;;;;;;4.00;3.70;;;14.50;99.90;;;14.05;81.86;100368.03;5094785;28;20315;-73
2023/08/29 04:47:18;;;;;;;4.80;3.90;;;14.40;99.90;;;14.05;82.13;100376.13;5094728;28;20220;-73
2023/08/29 04:49:50;;;;;;;4.20;3.67;;;14.40;99.90;;;14.07;81.99;100382.16;5094709;28;20236;-73
2023/08/29 04:52:22;;;;;;;7.80;4.23;;;14.40;99.90;;;14.06;82.28;100380.47;5094692;28;20622;-73
2023/08/29 04:54:54;;;;;;;5.37;4.57;;;14.40;99.90;;;14.03;81.70;100380.88;5094257;28;20317;-73
2023/08/29 04:57:26;;;;;;;4.83;4.00;;;14.40;99.90;;;14.09;82.22;100380.09;5094269;28;20730;-73
2023/08/29 04:59:57;;;;;;;4.80;4.03;;;14.40;99.90;;;14.05;82.16;100374.25;5094537;28;20193;-73
2023/08/29 05:02:31;;;;;;;6.13;4.20;;;14.40;99.90;;;14.06;82.25;100372.41;5094203;28;20722;-74
2023/08/29 05:05:03;;;;;;;4.50;4.10;;;14.50;99.90;;;14.06;82.34;100377.78;5094428;28;20233;-73
2023/08/29 05:07:35;;;;;;;5.83;4.00;;;14.50;99.90;;;14.07;82.10;100363.31;5094375;28;20238;-73
2023/08/29 05:10:08;;;;;;;4.70;4.23;;;14.50;99.90;;;14.03;82.92;100364.72;5094369;28;20189;-73
2023/08/29 05:12:41;;;;;;;7.07;4.40;;;14.50;99.90;;;14.01;83.06;100372.97;5094323;28;20220;-73
2023/08/29 05:15:12;;;;;;;4.87;4.20;;;14.40;99.90;;;13.98;82.57;100367.13;5094226;28;20225;-73
2023/08/29 05:17:45;;;;;;;6.30;4.67;;;14.30;99.90;;;14.03;82.86;100380.88;5094228;28;20189;-73
2023/08/29 05:20:17;;;;;;;5.77;4.27;;;14.50;99.90;;;14.05;82.75;100379.66;5093860;28;20651;-73
2023/08/29 05:22:49;;;;;;;5.33;4.13;;;14.40;99.90;;;14.08;82.43;100386.50;5093852;28;20647;-73
2023/08/29 05:25:21;;;;;;;5.53;4.27;;;14.50;99.90;;;13.95;83.55;100399.81;5094120;28;20268;-73
2023/08/29 05:27:53;;;;;;;5.03;4.00;;;14.40;99.90;;;13.98;83.10;100394.06;5093685;28;20686;-73
2023/08/29 05:30:25;;;;;;;5.57;4.33;;;14.40;99.90;;;13.97;83.50;100398.59;5094076;28;20288;-73
2023/08/29 05:32:59;;;;;;;5.53;4.50;;;14.40;99.90;;;13.96;83.92;100393.41;5093603;28;20600;-73
2023/08/29 05:35:31;;;;;;;7.77;4.80;;;14.30;99.90;;;13.98;83.55;100399.44;5094134;28;20276;-73
2023/08/29 05:38:03;;;;;;;6.77;4.40;;;14.30;99.90;;;13.95;84.08;100399.81;5093413;28;20276;-73
2023/08/29 05:40:35;;;;;;;5.30;4.53;;;14.40;99.90;;;13.96;84.01;100402.34;5093910;28;20184;-73
2023/08/29 05:43:07;;;;;;;5.97;5.20;;;14.40;99.90;;;13.94;84.25;100398.16;5094032;28;20284;-73
2023/08/29 05:45:41;;;;;;;6.23;4.77;;;14.30;99.90;;;13.92;84.36;100390.28;5093478;28;20228;-74
2023/08/29 05:48:14;;;;;;;5.90;5.30;;;14.30;99.90;;;13.88;84.36;100398.91;5093655;28;20300;-74
2023/08/29 05:50:48;;;;;;;5.10;4.60;;;14.30;99.90;;;13.94;84.37;100393.59;5093793;28;20192;-73
2023/08/29 05:53:22;;;;;;;6.20;5.10;;;14.30;99.90;;;13.79;84.76;100391.97;5093468;28;20371;-73
2023/08/29 05:55:54;;;;;;;7.37;5.50;;;14.20;99.90;;;13.73;84.99;100379.28;5093397;28;20651;-74
2023/08/29 05:58:27;;;;;;;5.07;4.57;;;14.20;99.90;;;13.82;85.15;100383.53;5093655;28;20221;-74
2023/08/29 06:00:59;;;;;;;7.47;5.30;;;14.20;99.90;;;13.79;85.38;100379.38;5093324;28;20690;-74
2023/08/29 06:03:32;;;;;;;7.07;5.40;;;14.20;99.90;;;13.88;84.89;100390.84;5093554;28;20243;-74
2023/08/29 06:06:04;;;;;;;6.00;5.00;;;14.40;99.90;;;13.83;84.86;100375.28;5093324;28;20238;-74
2023/08/29 06:08:36;;;;;;;8.30;5.27;;;14.40;99.90;;;13.89;85.14;100384.44;5093410;28;20256;-73
2023/08/29 06:11:09;;;;;;;6.73;5.23;;;14.30;99.90;;;13.90;85.42;100375.34;5093334;28;20559;-73
2023/08/29 06:13:41;;;;;;;6.07;5.43;;;14.30;99.90;;;13.83;85.80;100374.44;5093733;28;20220;-73
2023/08/29 06:16:13;;;;;;;8.37;5.93;;;14.30;99.90;;;13.81;86.11;100373.78;5093875;28;20276;-73
2023/08/29 06:18:47;;;;;;;6.47;5.80;;;14.30;99.90;;;13.79;86.20;100379.38;5093928;28;20536;-73
2023/08/29 06:21:18;;;;;;;7.27;6.03;;;14.20;99.90;;;13.84;86.13;100379.63;5093461;28;20197;-73
2023/08/29 06:23:50;;;;;;;8.40;5.83;;;14.20;99.90;;;13.91;85.77;100387.75;5093350;28;20235;-73
2023/08/29 06:26:22;;;;;;;6.50;5.97;;;14.40;99.90;;;13.87;86.57;100386.50;5093104;28;20656;-74
2023/08/29 06:28:54;;;;;;;6.00;5.50;;;14.30;99.90;;;13.92;86.08;100384.06;5093014;28;20694;-74
2023/08/29 06:31:26;;;;;;;6.23;5.63;;;14.50;99.90;;;13.92;86.17;100381.38;5093350;28;20189;-74
2023/08/29 06:34:00;;;;;;;6.60;5.90;;;14.40;99.90;;;13.96;86.05;100377.28;5092944;28;20722;-73
2023/08/29 06:36:32;;;;;;;6.73;5.80;;;14.50;99.90;;;13.94;86.27;100376.66;5093004;28;20283;-73
2023/08/29 06:39:05;;;;;;;6.57;5.37;;;14.50;99.90;;;13.97;86.12;100381.63;5092989;28;20284;-72
2023/08/29 06:41:36;;;;;;;5.67;5.17;;;14.50;99.90;;;13.99;86.53;100382.28;5093246;28;20192;-72
2023/08/29 06:44:09;;;;;;;6.60;5.80;;;14.50;99.90;;;14.04;86.17;100388.72;5093162;28;20319;-72
2023/08/29 06:46:41;;;;;;;7.37;6.07;;;14.50;99.90;;;14.04;86.20;100388.72;5093190;28;20211;-73
2023/08/29 06:49:15;;;;;;;5.40;4.90;;;14.50;99.90;;;14.10;86.25;100393.38;5094602;28;20212;-73
2023/08/29 06:51:47;;;;;;;6.00;5.40;;;14.60;99.90;;;14.08;85.71;100392.72;5097076;28;20189;-74
2023/08/29 06:54:19;;;;;;;6.10;5.60;;;14.60;99.90;;;14.05;86.28;100392.25;5096791;28;20271;-73
2023/08/29 06:56:51;;;;;;;7.33;5.77;;;14.50;99.90;;;14.07;86.23;100395.63;5096627;28;20707;-73
2023/08/29 06:59:23;;;;;;;6.20;5.47;;;14.50;99.90;;;14.01;86.04;100396.34;5096914;28;20221;-73
2023/08/29 07:01:55;;;;;;;6.60;5.93;;;14.50;99.90;;;14.01;86.18;100396.34;5096901;28;20276;-73
2023/08/29 07:04:28;;;;;;;7.53;6.00;;;14.50;99.90;;;14.00;86.46;100402.78;5096763;28;20589;-73
2023/08/29 07:07:00;;;;;;;6.80;5.80;;;14.50;99.90;;;13.94;86.63;100403.56;5096434;28;20657;-73
2023/08/29 07:09:32;;;;;;;8.87;6.20;;;14.50;99.90;;;14.02;86.62;100400.72;5096647;28;20264;-73
2023/08/29 07:12:04;;;;;;;8.23;5.50;;;14.50;99.90;;;14.10;86.61;100403.31;5096673;28;20282;-73
2023/08/29 07:14:36;;;;;;;8.40;6.23;;;14.60;99.90;;;14.12;86.96;100412.00;5096192;28;20228;-74
2023/08/29 07:17:08;;;;;;;6.57;5.30;;;14.60;99.90;;;14.17;86.48;100406.91;5096568;28;20193;-74
2023/08/29 07:19:43;;;;;;;7.63;5.37;;;14.70;99.90;;;14.17;86.82;100402.34;5096543;28;20188;-74
2023/08/29 07:22:15;;;;;;;6.87;5.50;;;14.70;99.90;;;14.16;86.49;100407.91;5096501;28;20197;-73
2023/08/29 07:24:55;;;;;;;5.63;5.13;;;14.70;99.90;;;14.21;86.76;100405.50;5096342;28;20256;-73
2023/08/29 07:27:27;;;;;;;7.57;5.27;;;14.80;99.90;;;14.25;85.98;100409.44;5096365;28;20216;-74
2023/08/29 07:29:59;;;;;;;4.43;4.03;;;14.80;99.90;;;14.29;86.27;100407.22;5096255;28;20216;-74
2023/08/29 07:32:31;;;;;;;6.30;4.50;;;14.90;99.90;;;14.31;85.87;100408.72;5096251;28;20339;-74
2023/08/29 07:35:04;;;;;;;6.07;4.80;;;14.90;99.90;;;14.27;85.91;100412.81;5095801;28;20312;-74
2023/08/29 07:37:36;;;;;;;6.53;4.70;;;14.80;99.90;;;14.34;86.17;100408.34;5095869;28;20284;-74
2023/08/29 07:40:11;;;;;;;5.23;4.73;;;15.00;99.90;;;14.36;86.71;100406.28;5096320;28;20201;-74
2023/08/29 07:42:43;;;;;;;8.30;4.87;;;14.90;99.90;;;14.35;86.24;100414.56;5096301;28;20192;-74
2023/08/29 07:45:15;;;;;;;5.57;4.67;;;15.00;99.90;;;14.39;86.67;100407.75;5095933;28;20278;-74
2023/08/29 07:47:47;;;;;;;7.03;4.63;;;14.90;99.90;;;14.45;86.03;100407.81;5095959;28;20236;-74
2023/08/29 07:50:20;;;;;;;4.83;4.37;;;15.10;99.90;;;14.52;86.47;100413.28;5095791;28;20216;-74
2023/08/29 07:52:52;;;;;;;6.93;4.93;;;15.00;99.90;;;14.57;86.08;100419.75;5095845;28;20199;-74
2023/08/29 07:55:26;;;;;;;5.63;4.67;;;15.20;99.90;;;14.62;85.41;100424.56;5095527;28;20307;-74
2023/08/29 07:57:59;;;;;;;4.90;4.40;;;15.20;99.90;;;14.67;85.60;100427.50;5095803;28;20239;-74
2023/08/29 08:00:30;;;;;;;4.83;4.27;;;15.20;99.90;;;14.73;85.83;100442.06;5095471;28;20280;-77
2023/08/29 08:03:02;;;;;;;4.93;4.20;;;15.30;99.90;;;14.75;85.13;100434.63;5095535;28;20707;-75
2023/08/29 08:05:36;;;;;;;6.63;4.57;;;15.30;99.90;;;14.78;85.35;100429.66;5095655;28;20189;-75
2023/08/29 08:08:10;;;;;;;5.17;3.73;;;15.40;99.90;;;14.82;84.99;100430.13;5095610;28;20199;-75
2023/08/29 08:10:43;;;;;;;5.67;4.23;;;15.40;99.90;;;14.85;84.86;100437.81;5095467;28;20240;-75
2023/08/29 08:13:15;;;;;;;5.60;3.80;;;15.40;99.90;;;14.91;84.70;100442.41;5095266;28;20217;-74
2023/08/29 08:15:47;;;;;;;4.03;3.63;;;15.40;99.90;;;14.96;85.42;100434.59;5095418;28;20242;-74
2023/08/29 08:18:19;;;;;;;5.30;4.40;;;15.50;99.90;;;15.00;84.87;100435.88;5094567;28;20276;-75
2023/08/29 08:20:52;;;;;;;5.73;4.40;;;15.50;99.90;;;15.04;85.27;100439.81;5095402;28;20220;-74
2023/08/29 08:23:24;;;;;;;5.67;4.50;;;15.60;99.90;;;15.06;84.56;100443.16;5094875;28;20259;-74
2023/08/29 08:25:56;;;;;;;4.03;3.67;;;15.60;99.90;;;15.13;85.66;100441.34;5094934;28;20189;-75
2023/08/29 08:28:28;;;;;;;5.70;3.80;;;15.80;99.90;;;15.17;84.86;100445.31;5095258;28;20189;-74
2023/08/29 08:31:00;;;;;;;4.27;3.87;;;15.70;99.90;;;15.18;84.29;100449.66;5095064;28;20217;-74
2023/08/29 08:33:32;;;;;;;3.87;3.50;;;15.60;99.90;;;15.23;84.02;100453.44;5095030;28;20264;-74
2023/08/29 08:36:05;;;;;;;4.73;3.47;;;15.80;99.90;;;15.27;84.44;100451.19;5094868;28;20627;-75
2023/08/29 08:38:37;;;;;;;3.83;2.90;;;15.80;99.90;;;15.34;84.32;100451.22;5094974;28;20192;-74
2023/08/29 08:41:10;;;;;;;3.60;2.87;;;15.90;99.90;;;15.39;84.45;100452.28;5095020;28;20189;-75
2023/08/29 08:43:44;;;;;;;3.27;2.97;;;15.90;99.90;;;15.46;83.97;100450.47;5094827;28;20256;-75
2023/08/29 08:46:17;;;;;;;5.80;3.77;;;16.00;99.90;;;15.51;83.54;100453.44;5094879;28;20250;-75
2023/08/29 08:48:49;;;;;;;4.77;2.80;;;16.10;99.90;;;15.54;83.06;100453.03;5095079;28;20193;-76
2023/08/29 08:51:26;;;;;;;3.90;2.43;;;16.10;99.90;;;15.60;82.74;100457.63;5094708;28;20209;-75
2023/08/29 08:53:58;;;;;;;3.60;2.60;;;16.20;99.90;;;15.64;82.86;100456.22;5094375;28;20323;-75
2023/08/29 08:56:32;;;;;;;4.73;2.60;;;16.20;99.90;;;15.70;82.62;100458.09;5094569;28;20284;-75
2023/08/29 08:59:05;;;;;;;2.97;2.63;;;16.20;99.90;;;15.75;82.52;100452.13;5094615;28;20272;-74
2023/08/29 09:01:38;;;;;;;2.83;2.40;;;16.40;99.90;;;15.78;82.28;100443.63;5094822;28;20180;-75
2023/08/29 09:04:10;;;;;;;4.10;2.60;;;16.40;99.90;;;15.86;82.53;100456.09;5094443;28;20335;-75
2023/08/29 09:06:43;;;;;;;2.87;2.30;;;16.40;99.90;;;15.88;81.79;100445.94;5094704;28;20189;-75
2023/08/29 09:09:24;;;;;;;4.00;2.40;;;16.50;99.90;;;15.95;81.64;100444.09;5094145;28;20188;-75
2023/08/29 09:11:57;;;;;;;3.17;2.20;;;16.50;99.90;;;16.01;80.59;100444.09;5093296;28;20192;-75
2023/08/29 09:14:32;;;;;;;2.40;1.97;;;16.60;99.90;;;16.13;81.04;100458.69;5093944;28;20256;-74
2023/08/29 09:17:08;;;;;;;2.67;2.00;;;16.70;99.90;;;16.17;80.17;100451.00;5094136;28;20271;-74
2023/08/29 09:19:41;;;;;;;3.17;2.10;;;16.70;99.90;;;16.26;79.67;100452.50;5094509;28;20192;-74
2023/08/29 09:22:14;;;;;;;3.13;2.23;;;16.80;99.90;;;16.28;79.79;100447.72;5094315;28;20228;-74
2023/08/29 09:24:46;;;;;;;2.37;1.80;;;16.90;99.90;;;16.32;78.60;100457.09;5094163;28;20224;-74
2023/08/29 09:27:18;;;;;;;2.93;1.87;;;16.90;99.90;;;16.43;80.75;100456.50;5094153;28;20295;-75
2023/08/29 09:29:50;;;;;;;3.83;2.03;;;17.00;99.90;;;16.51;78.84;100455.44;5094004;28;20276;-75
2023/08/29 09:32:22;;;;;;;2.00;1.80;;;17.10;99.90;;;16.54;78.34;100453.16;5093873;28;20637;-75
2023/08/29 09:35:02;;;;;;;6.50;1.90;;;17.10;99.90;;;16.63;78.06;100449.28;5093605;28;20228;-75
2023/08/29 09:37:39;;;;;;;4.87;2.00;;;17.20;99.90;;;16.73;77.98;100446.16;5094016;28;20193;-75
2023/08/29 09:40:15;;;;;;;5.67;2.37;;;17.30;99.90;;;16.81;78.84;100453.22;5093590;28;20531;-74
2023/08/29 09:43:09;;;;;;;3.27;2.47;;;17.40;99.90;;;16.86;77.91;100451.56;5093631;28;20559;-75
2023/08/29 09:45:41;;;;;;;6.80;2.07;;;17.40;99.90;;;16.91;76.53;100454.50;5093833;28;20204;-75
2023/08/29 09:48:13;;;;;;;2.63;1.90;;;17.50;99.90;;;16.99;76.38;100461.53;5093452;28;20624;-75
2023/08/29 09:50:47;;;;;;;2.83;2.00;;;17.70;99.90;;;16.97;74.75;100460.91;5093925;28;20209;-75
2023/08/29 09:53:21;;;;;;;3.37;2.00;;;17.50;99.90;;;17.05;76.25;100461.56;5093919;28;20327;-75
2023/08/29 09:56:05;;;;;;;2.63;1.77;;;17.60;99.90;;;17.12;75.19;100453.44;5094039;28;20189;-75
2023/08/29 09:58:40;;;;;;;2.50;1.90;;;17.70;99.90;;;17.23;76.58;100452.78;5093865;28;20189;-75
2023/08/29 10:01:14;;;;;;;3.63;1.80;;;17.80;99.90;;;17.32;78.08;100448.81;5093645;28;20220;-75
2023/08/29 10:03:49;;;;;;;2.97;2.07;;;17.90;99.90;;;17.35;74.78;100442.97;5093460;28;20236;-75
2023/08/29 10:06:24;;;;;;;3.20;1.90;;;17.90;99.90;;;17.44;74.61;100441.72;5093601;28;20193;-75
2023/08/29 10:09:03;;;;;;;4.17;2.40;;;18.00;99.90;;;17.55;75.38;100430.22;5093605;28;20193;-75
2023/08/29 10:11:36;;;;;;;4.23;2.00;;;18.10;99.90;;;17.66;73.80;100434.19;5093663;28;20223;-75
2023/08/29 10:14:24;;;;;;;2.50;1.80;;;18.20;99.90;;;17.70;73.50;100428.13;5093293;28;20225;-75
2023/08/29 10:16:58;;;;;;;4.23;2.07;;;18.30;99.90;;;17.84;74.41;100434.34;5093529;28;20646;-75
2023/08/29 10:19:32;;;;;;;2.67;2.00;;;18.40;99.90;;;17.85;73.08;100429.72;5093466;28;20279;-75
2023/08/29 10:22:07;;;;;;;4.50;2.17;;;18.40;99.90;;;17.92;74.20;100422.41;5093138;28;20673;-75
2023/08/29 10:24:44;;;;;;;3.47;2.07;;;18.40;99.90;;;17.93;72.30;100415.94;5097117;28;20809;-74
2023/08/29 10:27:16;;;;;;;2.60;2.23;;;18.40;99.90;;;17.92;72.50;100419.69;5097533;28;20184;-74
2023/08/29 10:29:48;;;;;;;5.10;2.60;;;18.50;99.90;;;17.95;72.11;100421.97;5097501;28;20212;-74
2023/08/29 10:32:22;;;;;;;2.80;2.20;;;18.40;99.90;;;17.94;72.03;100418.44;5097368;28;20295;-74
2023/08/29 10:34:57;;;;;;;3.83;1.93;;;18.40;99.90;;;17.97;70.91;100425.31;5097551;28;20315;-75
2023/08/29 10:37:31;;;;;;;5.83;2.70;;;18.40;99.90;;;17.97;70.44;100414.47;5097330;28;20195;-75